Time;durP1;ratioP1;P1;durP2;ratioP2;P2;SDS_P1;SDS_P2;PMS_P1;PMS_P2;Temp;Humidity;BMP_temperature;BMP_pressure;BME280_temperature;BME280_humidity;BME280_pressure;Samples;Min_cycle;Max_cycle;Signal;HPM_P1;HPM_P2
2023/05/18 00:00:23;;;;;;;4.63;1.93;;;;;;;7.47;71.73;101982.69;4953439;29;20210;-76
2023/05/18 00:02:49;;;;;;;4.60;2.20;;;;;;;7.39;71.96;101968.69;4955938;28;20258;-76
2023/05/18 00:05:17;;;;;;;7.37;2.60;;;;;;;7.41;71.88;101967.84;4955270;28;20686;-76
2023/05/18 00:07:44;;;;;;;7.17;1.90;;;;;;;7.45;71.96;101974.00;4953550;29;20211;-76
2023/05/18 00:10:10;;;;;;;4.80;2.10;;;;;;;7.43;71.60;101973.94;4956440;29;20233;-76
2023/05/18 00:12:37;;;;;;;4.30;1.93;;;;;;;7.28;72.34;101971.09;4956127;28;20219;-76
2023/05/18 00:15:05;;;;;;;3.77;1.63;;;;;;;7.21;72.85;101954.50;4958589;28;20236;-79
2023/05/18 00:17:31;;;;;;;10.93;1.97;;;;;;;7.25;72.94;101948.50;4957454;28;20668;-78
2023/05/18 00:19:58;;;;;;;4.27;2.30;;;;;;;7.25;73.42;101943.31;4962047;28;20685;-76
2023/05/18 00:22:26;;;;;;;4.00;1.83;;;;;;;7.20;72.72;101946.69;4956406;28;20214;-76
2023/05/18 00:24:52;;;;;;;4.10;1.93;;;;;;;7.22;73.17;101940.69;4956319;28;20277;-79
2023/05/18 00:27:19;;;;;;;3.40;1.73;;;;;;;7.11;72.85;101945.66;4956617;28;20235;-76
2023/05/18 00:29:45;;;;;;;6.77;2.00;;;;;;;7.11;73.61;101940.44;4956069;28;20679;-76
2023/05/18 00:32:12;;;;;;;3.63;2.10;;;;;;;7.03;73.70;101934.22;4956315;28;20307;-76
2023/05/18 00:34:38;;;;;;;5.73;2.27;;;;;;;7.00;74.85;101922.91;4956095;28;20227;-76
2023/05/18 00:37:04;;;;;;;4.90;2.10;;;;;;;6.98;74.11;101907.31;4956088;28;20265;-76
2023/05/18 00:39:32;;;;;;;5.37;2.63;;;;;;;6.97;73.38;101910.75;4956135;28;20223;-76
2023/05/18 00:41:58;;;;;;;5.40;2.73;;;;;;;7.04;73.98;101912.63;4956099;28;20213;-77
2023/05/18 00:44:25;;;;;;;4.47;1.80;;;;;;;7.03;74.94;101902.22;4956202;29;20275;-76
2023/05/18 00:46:51;;;;;;;6.23;2.20;;;;;;;6.83;75.61;101892.31;4955487;28;20706;-76
2023/05/18 00:49:18;;;;;;;5.03;2.03;;;;;;;6.89;75.33;101879.44;4955792;28;20694;-76
2023/05/18 00:51:45;;;;;;;6.93;2.53;;;;;;;6.90;75.20;101883.81;4956037;28;20650;-76
2023/05/18 00:54:12;;;;;;;2.17;1.70;;;;;;;6.85;75.67;101879.38;4955768;28;20224;-76
2023/05/18 00:56:41;;;;;;;6.13;2.40;;;;;;;6.89;75.17;101873.41;4955350;28;20260;-76
2023/05/18 00:59:09;;;;;;;6.90;2.07;;;;;;;6.78;75.22;101883.56;4955710;28;20222;-77
2023/05/18 01:01:42;;;;;;;4.97;1.90;;;;;;;6.75;74.93;101886.09;4954696;28;20220;-76
2023/05/18 01:04:09;;;;;;;5.00;2.50;;;;;;;6.73;75.81;101882.59;4955672;28;20243;-76
2023/05/18 01:06:35;;;;;;;5.57;2.20;;;;;;;6.68;76.33;101877.31;4955261;28;20218;-76
2023/05/18 01:09:04;;;;;;;4.03;1.80;;;;;;;6.68;76.13;101869.53;4955791;28;20245;-76
2023/05/18 01:11:37;;;;;;;5.50;2.23;;;;;;;6.64;76.30;101865.13;4955276;28;20204;-76
2023/05/18 01:14:14;;;;;;;6.40;2.60;;;;;;;6.61;76.43;101851.22;4955276;28;20645;-76
2023/05/18 01:16:44;;;;;;;4.67;1.87;;;;;;;6.68;76.18;101851.38;4955364;28;20211;-76
2023/05/18 01:19:30;;;;;;;10.87;2.77;;;;;;;6.76;75.31;101864.50;4955399;28;20213;-76
2023/05/18 01:22:04;;;;;;;3.80;2.07;;;;;;;6.61;76.36;101885.81;4955268;28;20245;-76
2023/05/18 01:24:40;;;;;;;5.53;2.20;;;;;;;6.61;75.71;101878.03;4954969;28;20260;-77
2023/05/18 01:27:08;;;;;;;5.17;2.63;;;;;;;6.59;75.54;101874.53;4955080;28;20222;-76
2023/05/18 01:29:35;;;;;;;5.27;2.53;;;;;;;6.47;77.44;101867.38;4955371;28;20238;-76
2023/05/18 01:32:06;;;;;;;3.23;2.03;;;;;;;6.53;77.40;101857.13;4955286;28;20205;-76
2023/05/18 01:34:32;;;;;;;4.60;2.33;;;;;;;6.51;76.86;101851.03;4954912;28;20231;-76
2023/05/18 01:36:59;;;;;;;6.70;2.30;;;;;;;6.53;76.51;101858.84;4954687;29;20240;-76
2023/05/18 01:39:25;;;;;;;6.13;2.47;;;;;;;6.54;75.99;101876.13;4955231;28;20274;-76
2023/05/18 01:41:56;;;;;;;6.60;3.67;;;;;;;6.56;77.39;101859.78;4954886;28;20236;-76
2023/05/18 01:44:28;;;;;;;4.60;3.00;;;;;;;6.55;77.35;101867.53;4954948;28;20276;-77
2023/05/18 01:47:00;;;;;;;6.63;2.90;;;;;;;6.43;78.08;101852.59;4955180;28;20218;-78
2023/05/18 01:49:31;;;;;;;7.17;3.33;;;;;;;6.48;78.45;101834.50;4961226;28;20222;-79
2023/05/18 01:52:03;;;;;;;7.47;3.70;;;;;;;6.44;78.73;101831.00;4956572;28;20214;-77
2023/05/18 01:54:32;;;;;;;5.80;3.73;;;;;;;6.40;78.77;101828.31;4955049;28;20282;-78
2023/05/18 01:56:58;;;;;;;5.27;3.17;;;;;;;6.44;78.68;101827.50;4954852;28;20215;-76
2023/05/18 01:59:26;;;;;;;5.60;2.90;;;;;;;6.41;78.36;101825.75;4954722;28;20697;-77
2023/05/18 02:01:54;;;;;;;4.77;2.97;;;;;;;6.40;78.07;101836.09;4954586;28;20238;-76
2023/05/18 02:04:20;;;;;;;4.07;3.33;;;;;;;6.38;78.29;101835.19;4954505;28;20236;-76
2023/05/18 02:06:46;;;;;;;4.23;3.07;;;;;;;6.31;78.66;101826.41;4954458;28;20246;-77
2023/05/18 02:09:13;;;;;;;5.87;2.73;;;;;;;6.24;79.64;101820.19;4954681;28;20211;-76
2023/05/18 02:11:40;;;;;;;6.27;3.60;;;;;;;6.09;79.72;101815.56;4954098;29;20246;-76
2023/05/18 02:14:06;;;;;;;6.23;3.23;;;;;;;6.09;79.40;101806.94;4954140;28;20237;-76
2023/05/18 02:16:34;;;;;;;6.47;3.17;;;;;;;6.04;78.95;101811.13;4954064;28;20243;-76
2023/05/18 02:19:00;;;;;;;7.57;3.30;;;;;;;6.06;77.62;101837.94;4954492;28;20689;-77
2023/05/18 02:21:26;;;;;;;6.57;2.87;;;;;;;6.09;78.08;101828.53;4954234;28;20244;-77
2023/05/18 02:23:53;;;;;;;5.50;3.37;;;;;;;6.02;78.63;101838.72;4954498;28;20262;-76
2023/05/18 02:26:19;;;;;;;4.80;3.30;;;;;;;6.05;78.42;101824.13;4953841;28;20746;-76
2023/05/18 02:28:46;;;;;;;7.10;3.70;;;;;;;6.10;78.73;101824.22;4954195;28;20700;-76
2023/05/18 02:31:12;;;;;;;4.17;3.30;;;;;;;6.09;79.34;101825.06;4954188;28;20242;-76
2023/05/18 02:33:40;;;;;;;5.83;3.00;;;;;;;6.04;77.73;101831.84;4954176;28;20283;-76
2023/05/18 02:36:08;;;;;;;4.20;3.30;;;;;;;6.04;77.98;101845.69;4953964;28;20247;-76
2023/05/18 02:38:36;;;;;;;4.60;3.27;;;;;;;6.09;78.87;101840.63;4954108;28;20690;-76
2023/05/18 02:41:03;;;;;;;5.50;2.90;;;;;;;6.09;79.15;101845.81;4953940;28;20245;-76
2023/05/18 02:43:29;;;;;;;4.63;3.13;;;;;;;6.07;78.21;101844.91;4954017;28;20299;-76
2023/05/18 02:45:56;;;;;;;4.80;3.23;;;;;;;6.05;78.46;101855.22;4954353;28;20215;-76
2023/05/18 02:48:22;;;;;;;4.40;3.13;;;;;;;6.03;79.45;101849.13;4954526;28;20205;-77
2023/05/18 02:50:50;;;;;;;6.13;3.50;;;;;;;6.00;79.23;101837.81;4954531;28;20295;-77
2023/05/18 02:53:16;;;;;;;9.90;3.60;;;;;;;6.04;79.30;101847.41;4954646;28;20606;-77
2023/05/18 02:55:42;;;;;;;9.47;3.17;;;;;;;5.93;79.52;101839.38;4953721;28;20212;-76
2023/05/18 02:58:12;;;;;;;5.30;3.67;;;;;;;5.93;78.79;101841.97;4953831;28;20220;-76
2023/05/18 03:00:38;;;;;;;6.33;3.70;;;;;;;6.03;79.20;101843.94;4954426;28;20267;-76
2023/05/18 03:03:05;;;;;;;3.83;3.17;;;;;;;5.94;78.74;101841.09;4954150;28;20232;-77
2023/05/18 03:05:31;;;;;;;4.87;3.33;;;;;;;5.96;79.04;101847.22;4953962;29;20226;-77
2023/05/18 03:08:01;;;;;;;8.03;3.77;;;;;;;5.86;79.63;101840.06;4958847;28;20243;-79
2023/05/18 03:10:27;;;;;;;5.63;3.23;;;;;;;5.84;80.13;101841.75;4958133;28;20202;-76
2023/05/18 03:12:53;;;;;;;5.50;3.87;;;;;;;5.85;79.97;101834.00;4953631;28;20721;-77
2023/05/18 03:15:20;;;;;;;7.47;3.83;;;;;;;5.79;79.82;101831.28;4955393;28;20250;-79
2023/05/18 03:17:48;;;;;;;6.20;3.60;;;;;;;5.78;80.95;101825.19;4961331;28;20214;-79
2023/05/18 03:20:14;;;;;;;3.83;3.43;;;;;;;5.72;80.90;101814.69;4955631;28;20584;-77
2023/05/18 03:22:41;;;;;;;5.27;3.43;;;;;;;5.70;80.18;101821.56;4953708;28;20288;-77
2023/05/18 03:25:09;;;;;;;6.70;3.70;;;;;;;5.67;80.80;101812.84;4955001;28;20239;-77
2023/05/18 03:27:36;;;;;;;5.43;4.00;;;;;;;5.65;81.87;101798.97;4957872;28;20622;-77
2023/05/18 03:30:03;;;;;;;7.83;3.30;;;;;;;5.67;81.88;101798.19;4957785;28;20267;-77
2023/05/18 03:32:30;;;;;;;4.50;3.83;;;;;;;5.68;81.51;101797.34;4957755;28;20243;-77
2023/05/18 03:34:59;;;;;;;4.03;3.27;;;;;;;5.62;82.26;101786.84;4957599;28;20206;-77
2023/05/18 03:37:26;;;;;;;7.00;3.83;;;;;;;5.61;82.65;101776.44;4957851;28;20217;-76
2023/05/18 03:39:52;;;;;;;3.90;3.37;;;;;;;5.53;83.32;101769.38;4957253;28;20255;-77
2023/05/18 03:42:20;;;;;;;3.93;3.30;;;;;;;5.49;82.28;101767.56;4957516;28;20250;-77
2023/05/18 03:44:46;;;;;;;5.40;3.93;;;;;;;5.41;82.68;101770.78;4957556;28;20236;-77
2023/05/18 03:47:13;;;;;;;5.03;3.27;;;;;;;5.45;81.74;101775.19;4957437;28;20743;-77
2023/05/18 03:49:39;;;;;;;4.60;3.10;;;;;;;5.46;81.57;101788.19;4961990;28;20218;-79
2023/05/18 03:52:06;;;;;;;6.87;3.73;;;;;;;5.49;82.39;101793.47;4966213;28;20217;-79
2023/05/18 03:54:33;;;;;;;9.60;4.30;;;;;;;5.49;82.70;101779.63;4963645;28;20333;-76
2023/05/18 03:56:59;;;;;;;5.00;3.40;;;;;;;5.53;83.10;101768.47;4960312;28;20270;-78
2023/05/18 03:59:27;;;;;;;7.80;4.20;;;;;;;5.50;83.06;101765.84;4976612;28;20246;-79
2023/05/18 04:01:53;;;;;;;5.13;3.20;;;;;;;5.51;82.45;101770.16;4972583;28;20207;-76
2023/05/18 04:04:22;;;;;;;4.10;3.30;;;;;;;5.52;83.15;101759.84;4960729;28;20274;-77
2023/05/18 04:06:50;;;;;;;7.93;3.87;;;;;;;5.46;84.03;101751.94;4958820;28;20210;-77
2023/05/18 04:09:17;;;;;;;4.93;3.43;;;;;;;5.52;83.98;101748.63;4957263;28;20218;-76
2023/05/18 04:11:43;;;;;;;5.27;3.40;;;;;;;5.52;84.30;101744.31;4956598;28;20237;-79
2023/05/18 04:14:11;;;;;;;10.40;3.33;;;;;;;5.58;83.45;101747.03;4983739;23;20242;-81
2023/05/18 04:16:38;;;;;;;5.90;3.10;;;;;;;5.54;84.10;101752.13;4962150;29;20219;-80
2023/05/18 04:19:05;;;;;;;5.43;3.73;;;;;;;5.58;84.14;101753.94;4963736;29;20212;-80
2023/05/18 04:21:34;;;;;;;9.53;3.30;;;;;;;5.70;83.90;101749.03;4963690;29;20641;-80
2023/05/18 04:24:02;;;;;;;6.10;3.60;;;;;;;5.74;83.67;101765.53;4963328;29;20235;-81
2023/05/18 04:26:28;;;;;;;6.97;3.70;;;;;;;5.69;83.94;101762.84;4962708;29;20204;-81
2023/05/18 04:28:58;;;;;;;5.17;3.63;;;;;;;5.77;83.71;101757.84;4962829;29;20205;-80
2023/05/18 04:31:25;;;;;;;4.60;3.07;;;;;;;5.82;83.53;101778.66;4963266;29;20214;-80
2023/05/18 04:33:53;;;;;;;6.30;3.73;;;;;;;5.93;83.04;101782.34;4962877;29;20648;-80
2023/05/18 04:36:19;;;;;;;8.53;3.87;;;;;;;5.99;82.30;101807.56;4961161;28;20242;-81
2023/05/18 04:38:46;;;;;;;7.10;3.10;;;;;;;6.07;82.16;101816.38;4962015;29;20218;-81
2023/05/18 04:41:12;;;;;;;7.67;4.20;;;;;;;6.13;82.20;101834.66;4962425;29;20202;-80
2023/05/18 04:43:38;;;;;;;5.00;3.27;;;;;;;6.19;81.54;101846.91;4962442;28;20234;-81
2023/05/18 04:46:05;;;;;;;5.00;3.47;;;;;;;6.25;81.43;101854.81;4962532;29;20566;-81
2023/05/18 04:48:32;;;;;;;5.50;3.60;;;;;;;6.30;80.72;101856.66;4962718;29;20212;-81
2023/05/18 04:51:00;;;;;;;6.03;3.43;;;;;;;6.34;80.81;101873.13;4963085;29;20218;-82
2023/05/18 04:53:27;;;;;;;5.70;3.77;;;;;;;6.16;79.28;101908.22;4962503;29;20266;-81
2023/05/18 04:55:53;;;;;;;5.13;3.60;;;;;;;6.08;78.70;101920.09;4962044;29;20208;-81
2023/05/18 04:58:19;;;;;;;6.27;3.73;;;;;;;6.17;78.53;101927.22;4961325;29;20610;-81
2023/05/18 05:00:45;;;;;;;8.17;3.57;;;;;;;6.28;79.50;101927.44;4962407;29;20215;-80
2023/05/18 05:03:12;;;;;;;6.90;4.00;;;;;;;6.30;79.09;101938.72;4962008;28;20225;-80
2023/05/18 05:05:38;;;;;;;7.17;3.80;;;;;;;6.37;79.24;101953.59;4962543;29;20293;-81
2023/05/18 05:08:06;;;;;;;8.13;3.97;;;;;;;6.30;79.04;101949.09;4963032;28;20215;-81
2023/05/18 05:10:32;;;;;;;6.07;3.70;;;;;;;6.41;79.22;101951.97;4961606;28;20222;-80
2023/05/18 05:12:58;;;;;;;6.70;3.70;;;;;;;6.27;78.07;101962.88;4961745;28;20209;-82
2023/05/18 05:15:25;;;;;;;5.13;3.63;;;;;;;5.95;78.44;101977.69;4961522;29;20211;-81
2023/05/18 05:17:51;;;;;;;5.30;3.60;;;;;;;6.04;78.37;101972.69;4962245;28;20686;-81
2023/05/18 05:20:18;;;;;;;6.57;3.53;;;;;;;6.21;79.59;101961.88;4962074;28;20211;-81
2023/05/18 05:22:45;;;;;;;5.73;3.63;;;;;;;6.38;78.97;101960.53;4962567;28;20210;-80
2023/05/18 05:25:12;;;;;;;6.67;3.30;;;;;;;6.47;79.03;101970.25;4961401;28;20231;-81
2023/05/18 05:27:39;;;;;;;8.23;3.37;;;;;;;6.60;77.76;101973.97;4961996;29;20210;-81
2023/05/18 05:30:06;;;;;;;4.90;3.07;;;;;;;6.69;75.79;102013.13;4962138;28;20698;-80
2023/05/18 05:32:34;;;;;;;4.50;2.90;;;;;;;6.71;75.79;102037.38;4962020;28;20617;-82
2023/05/18 05:35:01;;;;;;;9.27;3.50;;;;;;;6.76;75.64;102064.34;4962320;28;20308;-80
2023/05/18 05:37:28;;;;;;;8.27;4.70;;;;;;;6.83;75.73;102058.41;4961830;28;20222;-81
2023/05/18 05:39:55;;;;;;;4.57;3.40;;;;;;;6.90;75.87;102065.50;4961658;28;20215;-81
2023/05/18 05:42:24;;;;;;;4.63;3.20;;;;;;;6.94;75.87;102064.75;4961111;29;20216;-80
2023/05/18 05:44:50;;;;;;;3.23;2.77;;;;;;;7.01;75.18;102081.31;4961189;29;20703;-81
2023/05/18 05:47:16;;;;;;;4.90;3.07;;;;;;;7.05;75.09;102097.84;4961294;28;20215;-81
2023/05/18 05:49:43;;;;;;;5.80;3.33;;;;;;;7.07;73.38;102123.00;4961463;29;20211;-79
2023/05/18 05:52:09;;;;;;;4.20;3.40;;;;;;;7.09;73.09;102149.88;4961892;29;20210;-81
2023/05/18 05:54:35;;;;;;;9.47;3.63;;;;;;;7.04;73.82;102168.81;4961897;29;20238;-81
2023/05/18 05:57:02;;;;;;;4.27;3.07;;;;;;;7.04;74.99;102142.84;4961598;28;20211;-81
2023/05/18 05:59:30;;;;;;;6.90;3.30;;;;;;;7.11;74.16;102148.19;4961887;28;20210;-81
2023/05/18 06:01:56;;;;;;;7.80;3.77;;;;;;;7.15;74.70;102142.25;4962361;29;20206;-81
2023/05/18 06:04:22;;;;;;;6.60;4.03;;;;;;;7.18;75.00;102136.25;4961121;29;20232;-81
2023/05/18 06:06:49;;;;;;;4.73;3.43;;;;;;;7.16;74.55;102136.19;4961760;29;20230;-80
2023/05/18 06:09:15;;;;;;;17.23;4.27;;;;;;;7.22;75.71;102138.06;4962084;29;20217;-81
2023/05/18 06:11:42;;;;;;;5.33;3.57;;;;;;;7.25;75.82;102126.84;4961621;29;20709;-81
2023/05/18 06:14:08;;;;;;;4.80;3.77;;;;;;;7.34;75.64;102120.13;4961297;29;20246;-81
2023/05/18 06:16:36;;;;;;;7.20;3.70;;;;;;;7.43;74.66;102127.22;4961138;29;20206;-81
2023/05/18 06:19:02;;;;;;;5.27;3.63;;;;;;;7.52;74.71;102131.78;4960828;28;20231;-82
2023/05/18 06:21:28;;;;;;;9.00;3.83;;;;;;;7.52;74.47;102136.97;4960509;28;20582;-82
2023/05/18 06:23:55;;;;;;;5.67;3.20;;;;;;;7.60;74.29;102137.13;4960083;28;20592;-82
2023/05/18 06:26:21;;;;;;;6.57;3.50;;;;;;;7.62;73.60;102161.44;4962839;28;20288;-82
2023/05/18 06:28:48;;;;;;;5.13;3.43;;;;;;;7.67;72.95;102170.19;4962646;28;20265;-82
2023/05/18 06:31:15;;;;;;;4.53;3.07;;;;;;;7.71;73.24;102185.91;4961842;28;20215;-82
2023/05/18 06:33:43;;;;;;;4.53;3.33;;;;;;;7.73;72.90;102191.09;4962375;29;20233;-80
2023/05/18 06:36:09;;;;;;;6.13;3.30;;;;;;;7.77;73.50;102195.53;4962475;28;20200;-81
2023/05/18 06:38:36;;;;;;;5.00;3.47;;;;;;;7.84;73.85;102181.81;4963362;29;20216;-82
2023/05/18 06:41:02;;;;;;;5.37;3.60;;;;;;;7.91;74.35;102181.09;4963690;28;20211;-81
2023/05/18 06:43:28;;;;;;;8.93;4.00;;;;;;;7.99;73.51;102182.94;4962961;29;20225;-80
2023/05/18 06:45:55;;;;;;;4.23;3.57;;;;;;;8.04;73.42;102173.53;4963348;29;20225;-80
2023/05/18 06:48:23;;;;;;;6.50;3.67;;;;;;;8.09;72.62;102183.19;4963087;29;20213;-80
2023/05/18 06:50:51;;;;;;;6.90;3.57;;;;;;;8.17;73.15;102196.34;4961465;28;20211;-81
2023/05/18 06:53:17;;;;;;;6.73;3.80;;;;;;;8.24;73.42;102198.19;4962743;29;20232;-80
2023/05/18 06:55:44;;;;;;;4.37;3.53;;;;;;;8.27;73.19;102193.06;4961641;28;20212;-82
2023/05/18 06:58:10;;;;;;;5.63;3.90;;;;;;;8.32;72.87;102196.63;4963177;29;20209;-81
2023/05/18 07:00:37;;;;;;;7.33;4.67;;;;;;;8.40;70.94;102204.56;4965622;28;20212;-81
2023/05/18 07:03:03;;;;;;;4.80;3.70;;;;;;;8.45;71.12;102236.78;4968075;29;20211;-81
2023/05/18 07:05:30;;;;;;;5.70;4.20;;;;;;;8.56;69.88;102260.41;4966507;29;20235;-81
2023/05/18 07:07:58;;;;;;;8.73;3.50;;;;;;;8.59;70.02;102289.13;4966247;29;20289;-81
2023/05/18 07:10:24;;;;;;;6.23;3.80;;;;;;;8.67;68.58;102307.47;4966377;29;20220;-80
2023/05/18 07:12:50;;;;;;;4.33;3.43;;;;;;;8.74;68.71;102328.47;4965401;29;20211;-82
2023/05/18 07:15:17;;;;;;;7.10;3.83;;;;;;;8.79;68.51;102343.28;4964126;28;20259;-80
2023/05/18 07:17:43;;;;;;;3.50;3.20;;;;;;;8.86;67.91;102356.47;4965451;29;20215;-79
2023/05/18 07:20:10;;;;;;;4.93;4.10;;;;;;;8.95;68.26;102373.97;4965491;29;20204;-80
2023/05/18 07:22:36;;;;;;;6.93;3.97;;;;;;;9.01;66.91;102381.03;4966005;29;20240;-81
2023/05/18 07:25:05;;;;;;;7.37;4.10;;;;;;;9.01;67.08;102396.66;4966107;29;20240;-80
2023/05/18 07:27:33;;;;;;;6.43;4.57;;;;;;;9.06;67.51;102405.47;4966487;29;20582;-81
2023/05/18 07:29:59;;;;;;;5.23;4.00;;;;;;;9.04;66.77;102407.13;4967474;29;20279;-81
2023/05/18 07:32:25;;;;;;;7.53;4.10;;;;;;;9.02;67.32;102414.03;4966025;29;20208;-80
2023/05/18 07:34:52;;;;;;;6.97;4.53;;;;;;;9.05;67.45;102417.59;4964533;29;20234;-79
2023/05/18 07:37:18;;;;;;;8.23;5.17;;;;;;;9.13;68.72;102405.56;4964869;29;20263;-82
2023/05/18 07:39:45;;;;;;;8.57;5.33;;;;;;;9.21;67.15;102405.72;4965288;29;20242;-80
2023/05/18 07:42:12;;;;;;;9.70;4.57;;;;;;;9.27;67.20;102407.56;4959039;29;20205;-80
2023/05/18 07:44:38;;;;;;;6.10;4.87;;;;;;;9.31;66.72;102422.41;4963667;28;20232;-79
2023/05/18 07:47:05;;;;;;;6.57;4.60;;;;;;;9.37;65.99;102429.47;4962888;29;20226;-80
2023/05/18 07:49:32;;;;;;;5.70;4.27;;;;;;;9.41;65.76;102423.44;4961818;28;20231;-79
2023/05/18 07:51:59;;;;;;;7.70;4.70;;;;;;;9.47;66.23;102436.59;4963864;28;20209;-80
2023/05/18 07:54:26;;;;;;;7.33;4.37;;;;;;;9.54;65.60;102438.47;4965211;28;20239;-80
2023/05/18 07:56:52;;;;;;;8.20;4.10;;;;;;;9.61;65.59;102442.03;4963292;29;20212;-80
2023/05/18 07:59:20;;;;;;;5.80;3.80;;;;;;;9.68;66.06;102447.41;4964050;28;20213;-81
2023/05/18 08:01:47;;;;;;;4.67;3.57;;;;;;;9.99;74.34;102264.41;4965327;29;20216;-80
2023/05/18 08:04:14;;;;;;;5.33;3.83;;;;;;;10.02;68.38;102312.28;4966322;29;20324;-81
2023/05/18 08:06:40;;;;;;;6.00;3.63;;;;;;;9.97;65.58;102355.72;4966644;29;20235;-79
2023/05/18 08:09:07;;;;;;;7.37;3.93;;;;;;;10.02;65.50;102398.38;4965097;29;20220;-80
2023/05/18 08:11:33;;;;;;;5.60;4.57;;;;;;;10.06;64.69;102425.41;4963352;28;20213;-80
2023/05/18 08:13:59;;;;;;;7.40;3.93;;;;;;;10.08;63.73;102441.97;4962309;28;20625;-80
2023/05/18 08:16:27;;;;;;;9.97;6.27;;;;;;;10.10;66.94;102477.66;4962915;29;20583;-80
2023/05/18 08:18:53;;;;;;;4.40;2.90;;;;;;;10.22;68.45;102349.06;4962950;29;20212;-81
2023/05/18 08:21:20;;;;;;;5.17;3.53;;;;;;;10.26;64.18;102384.78;4963732;29;20235;-80
2023/05/18 08:23:46;;;;;;;7.03;3.40;;;;;;;10.29;63.47;102442.28;4964312;28;20259;-80
2023/05/18 08:26:13;;;;;;;9.00;4.37;;;;;;;10.40;62.97;102472.91;4963467;29;20232;-80
2023/05/18 08:28:39;;;;;;;9.50;4.50;;;;;;;10.42;62.34;102499.91;4964032;29;20208;-80
2023/05/18 08:31:06;;;;;;;6.03;4.10;;;;;;;10.45;62.94;102507.81;4963743;29;20326;-79
2023/05/18 08:33:33;;;;;;;7.37;4.30;;;;;;;10.46;62.53;102504.31;4963347;29;20228;-78
2023/05/18 08:36:00;;;;;;;6.70;4.03;;;;;;;10.48;62.47;102520.91;4962170;28;20212;-79
2023/05/18 08:38:26;;;;;;;4.30;3.60;;;;;;;10.56;61.77;102528.84;4961945;29;20208;-80
2023/05/18 08:41:08;;;;;;;4.13;2.97;;;;;;;10.57;60.67;102554.13;4963094;28;20216;-79
2023/05/18 08:43:39;;;;;;;6.07;3.37;;;;;;;10.59;61.70;102558.50;4964526;29;20224;-79
2023/05/18 08:46:13;;;;;;;5.33;4.20;;;;;;;10.63;62.54;102549.00;4963515;29;20229;-78
2023/05/18 08:48:45;;;;;;;6.50;4.00;;;;;;;10.71;63.34;102523.84;4959074;28;20213;-80
2023/05/18 08:51:13;;;;;;;7.73;4.10;;;;;;;10.84;62.00;102517.03;4958239;29;20214;-80
2023/05/18 08:53:40;;;;;;;4.33;3.40;;;;;;;10.93;61.88;102538.09;4958498;29;20233;-82
2023/05/18 08:56:08;;;;;;;9.07;3.63;;;;;;;10.95;60.96;102528.53;4957943;28;20686;-81
2023/05/18 08:58:36;;;;;;;6.33;3.50;;;;;;;10.99;60.59;102540.78;4958641;29;20251;-81
2023/05/18 09:01:03;;;;;;;5.27;3.30;;;;;;;11.02;59.71;102566.06;4958665;29;20228;-81
2023/05/18 09:03:31;;;;;;;7.47;4.37;;;;;;;11.01;59.59;102588.72;4958629;29;20233;-81
2023/05/18 09:06:00;;;;;;;6.33;4.30;;;;;;;10.92;59.78;102605.16;4958254;29;20271;-81
2023/05/18 09:08:28;;;;;;;5.07;4.23;;;;;;;10.88;59.85;102611.19;4958385;29;20242;-78
2023/05/18 09:10:57;;;;;;;4.37;3.10;;;;;;;10.92;60.38;102607.75;4958312;28;20268;-79
2023/05/18 09:13:23;;;;;;;7.87;4.40;;;;;;;10.99;60.29;102605.25;4957650;28;20294;-81
2023/05/18 09:15:50;;;;;;;5.53;3.33;;;;;;;10.95;59.75;102600.81;4958726;28;20209;-81
2023/05/18 09:18:16;;;;;;;6.47;3.57;;;;;;;10.88;59.61;102605.06;4957919;29;20678;-79
2023/05/18 09:20:43;;;;;;;4.37;3.23;;;;;;;10.91;60.53;102615.56;4958248;28;20216;-81
2023/05/18 09:23:11;;;;;;;6.83;3.60;;;;;;;11.00;60.18;102597.44;4957474;28;20243;-80
2023/05/18 09:25:44;;;;;;;5.43;3.53;;;;;;;11.11;60.16;102582.75;4957843;29;20240;-81
2023/05/18 09:28:11;;;;;;;5.73;3.80;;;;;;;11.18;59.51;102585.44;4957923;29;20607;-81
2023/05/18 09:30:41;;;;;;;4.63;4.03;;;;;;;11.22;59.31;102593.38;4958468;28;20236;-80
2023/05/18 09:33:15;;;;;;;5.77;3.10;;;;;;;11.31;59.48;102598.69;4957841;29;20208;-80
2023/05/18 09:35:42;;;;;;;5.30;3.30;;;;;;;11.36;59.66;102580.47;4957503;29;20711;-79
2023/05/18 09:38:09;;;;;;;7.07;3.47;;;;;;;11.35;59.28;102580.44;4957753;29;20233;-82
2023/05/18 09:40:37;;;;;;;6.13;3.37;;;;;;;11.42;59.16;102585.78;4958881;29;20213;-80
2023/05/18 09:43:07;;;;;;;4.67;3.40;;;;;;;11.56;58.87;102580.69;4958549;29;20565;-79
2023/05/18 09:45:33;;;;;;;5.07;3.20;;;;;;;11.69;59.63;102593.06;4957843;29;20225;-82
2023/05/18 09:47:59;;;;;;;4.83;2.73;;;;;;;11.81;59.35;102573.09;4957574;29;20259;-80
2023/05/18 09:50:26;;;;;;;4.83;2.87;;;;;;;11.92;59.77;102588.09;4957135;29;20229;-81
2023/05/18 09:52:52;;;;;;;5.93;3.00;;;;;;;12.07;58.47;102592.63;4957005;29;20304;-80
2023/05/18 09:55:19;;;;;;;3.87;2.90;;;;;;;12.14;57.22;102601.41;4958087;29;20679;-79
2023/05/18 09:57:49;;;;;;;5.17;3.43;;;;;;;12.01;56.19;102631.81;4958561;28;20204;-80
2023/05/18 10:00:18;;;;;;;5.07;3.10;;;;;;;12.09;57.12;102660.66;4958248;29;20204;-79
2023/05/18 10:02:47;;;;;;;5.10;3.10;;;;;;;12.06;56.96;102672.00;4959690;29;20712;-82
2023/05/18 10:05:21;;;;;;;6.67;3.83;;;;;;;12.08;57.38;102669.41;4959088;29;20312;-80
2023/05/18 10:07:47;;;;;;;4.07;3.00;;;;;;;12.07;56.60;102668.53;4959557;28;20229;-80
2023/05/18 10:10:17;;;;;;;4.97;3.43;;;;;;;12.13;56.99;102675.56;4959299;29;20634;-79
2023/05/18 10:12:44;;;;;;;5.93;3.43;;;;;;;12.25;56.69;102674.78;4958606;29;20205;-81
2023/05/18 10:15:14;;;;;;;5.60;3.10;;;;;;;12.30;56.67;102678.34;4961397;29;20268;-80
2023/05/18 10:17:43;;;;;;;4.90;2.87;;;;;;;12.49;56.58;102669.81;4962949;29;20290;-79
2023/05/18 10:20:10;;;;;;;5.67;3.27;;;;;;;12.59;55.86;102680.38;4963312;29;20742;-82
2023/05/18 10:22:37;;;;;;;4.03;3.00;;;;;;;12.56;55.68;102696.06;4963540;28;20212;-80
2023/05/18 10:25:06;;;;;;;4.43;2.67;;;;;;;12.54;55.62;102700.41;4963043;29;20280;-81
2023/05/18 10:27:35;;;;;;;7.00;3.63;;;;;;;12.41;55.97;102712.53;4963020;29;20782;-81
2023/05/18 10:30:03;;;;;;;7.17;3.53;;;;;;;12.24;55.96;102699.25;4963479;28;20234;-80
2023/05/18 10:32:35;;;;;;;7.23;3.67;;;;;;;12.44;56.28;102697.69;4962628;29;20204;-81
2023/05/18 10:35:02;;;;;;;6.60;3.33;;;;;;;12.68;56.76;102685.69;4962262;28;20232;-81
2023/05/18 10:37:30;;;;;;;8.03;3.50;;;;;;;12.78;55.88;102682.28;4962996;29;20206;-82
2023/05/18 10:39:59;;;;;;;4.40;3.33;;;;;;;12.70;55.23;102691.81;4962736;29;20268;-80
2023/05/18 10:42:26;;;;;;;6.70;4.77;;;;;;;12.63;55.06;102698.75;4962744;29;20383;-81
2023/05/18 10:44:53;;;;;;;6.93;4.00;;;;;;;12.58;56.46;102696.94;4962774;28;20263;-82
2023/05/18 10:47:20;;;;;;;7.30;3.50;;;;;;;12.62;56.24;102680.41;4963789;29;20233;-80
2023/05/18 10:49:49;;;;;;;6.37;3.33;;;;;;;12.68;55.42;102670.84;4962964;29;20211;-80
2023/05/18 10:52:17;;;;;;;7.57;2.77;;;;;;;12.73;56.73;102684.00;4963206;29;20212;-79
2023/05/18 10:54:44;;;;;;;6.57;2.90;;;;;;;12.80;55.25;102659.56;4962860;29;20276;-81
2023/05/18 10:57:13;;;;;;;5.50;3.07;;;;;;;12.85;55.53;102662.25;4962662;29;20256;-81
2023/05/18 10:59:42;;;;;;;5.23;3.63;;;;;;;12.89;54.48;102664.03;4963329;29;20220;-80
2023/05/18 11:02:10;;;;;;;5.07;3.27;;;;;;;13.03;54.46;102679.84;4962886;29;20205;-80
2023/05/18 11:04:39;;;;;;;3.87;2.77;;;;;;;13.17;55.43;102670.31;4962762;29;20300;-81
2023/05/18 11:07:10;;;;;;;7.53;3.80;;;;;;;13.37;55.30;102666.97;4962074;29;20239;-80
2023/05/18 11:09:41;;;;;;;4.80;3.60;;;;;;;13.50;53.97;102656.53;4962987;29;20216;-80
2023/05/18 11:12:12;;;;;;;5.17;2.87;;;;;;;13.52;54.41;102688.06;4963092;29;20209;-81
2023/05/18 11:14:49;;;;;;;6.43;3.30;;;;;;;13.70;54.17;102679.38;4962107;29;20229;-80
2023/05/18 11:17:17;;;;;;;5.67;2.90;;;;;;;13.89;53.80;102682.94;4962682;29;20721;-81
2023/05/18 11:20:11;;;;;;;5.27;2.80;;;;;;;14.08;52.49;102690.00;4963144;29;20208;-81
2023/05/18 11:22:46;;;;;;;5.77;2.97;;;;;;;14.20;52.06;102698.78;4962625;29;20212;-81
2023/05/18 11:25:39;;;;;;;8.27;3.10;;;;;;;14.20;52.02;102736.44;4961520;28;20256;-81
2023/05/18 11:28:08;;;;;;;3.50;2.67;;;;;;;14.40;51.66;102743.50;4961499;29;20261;-79
2023/05/18 11:30:51;;;;;;;6.70;2.87;;;;;;;15.06;51.61;102740.94;4962262;29;20253;-81
2023/05/18 11:33:23;;;;;;;4.13;2.40;;;;;;;15.74;50.27;102752.28;4961809;29;20233;-83